createdAt,value
2022-12-01T00:01:27.228Z,3.40
2022-12-01T00:03:55.016Z,3.40
2022-12-01T00:06:23.098Z,4.40
2022-12-01T00:09:12.990Z,3.40
2022-12-01T00:11:42.730Z,3.40
2022-12-01T00:14:10.086Z,3.40
2022-12-01T00:16:37.427Z,3.30
2022-12-01T00:19:04.917Z,4.30
2022-12-01T00:21:32.437Z,5.00
2022-12-01T00:23:59.815Z,4.30
2022-12-01T00:26:28.017Z,3.20
2022-12-01T00:28:57.731Z,2.50
2022-12-01T00:31:26.155Z,3.20
2022-12-01T00:33:53.619Z,3.00
2022-12-01T00:36:24.809Z,3.70
2022-12-01T00:38:56.136Z,3.10
2022-12-01T00:41:25.955Z,3.10
2022-12-01T00:43:53.783Z,3.10
2022-12-01T00:46:21.738Z,3.00
2022-12-01T00:48:49.738Z,3.00
2022-12-01T00:51:17.255Z,3.10
2022-12-01T00:53:44.609Z,2.80
2022-12-01T00:56:12.273Z,2.00
2022-12-01T00:58:39.714Z,2.90
2022-12-01T01:01:07.988Z,3.30
2022-12-01T01:03:35.699Z,2.20
2022-12-01T01:06:11.988Z,2.60
2022-12-01T01:08:40.445Z,2.90
2022-12-01T01:11:09.124Z,2.80
2022-12-01T01:13:37.442Z,1.50
2022-12-01T01:16:11.566Z,2.80
2022-12-01T01:18:39.133Z,2.70
2022-12-01T01:21:09.431Z,2.60
2022-12-01T01:23:38.115Z,3.50
2022-12-01T01:26:08.433Z,2.30
2022-12-01T01:28:36.256Z,2.60
2022-12-01T01:31:10.613Z,2.20
2022-12-01T01:33:38.392Z,2.50
2022-12-01T01:36:06.765Z,2.60
2022-12-01T01:38:34.987Z,2.50
2022-12-01T01:41:03.976Z,3.10
2022-12-01T01:43:53.183Z,2.50
2022-12-01T01:46:28.316Z,2.40
2022-12-01T01:49:09.896Z,2.40
2022-12-01T01:51:55.574Z,2.40
2022-12-01T01:54:27.265Z,2.60
2022-12-01T01:56:57.779Z,2.30
2022-12-01T01:59:31.908Z,2.20
2022-12-01T02:02:11.174Z,2.20
2022-12-01T02:04:45.504Z,2.20
2022-12-01T02:07:17.918Z,2.20
2022-12-01T02:09:46.465Z,1.60
2022-12-01T02:12:19.831Z,2.20
2022-12-01T02:14:59.743Z,2.20
2022-12-01T02:17:42.146Z,1.90
2022-12-01T02:20:28.268Z,2.10
2022-12-01T02:23:39.695Z,2.90
2022-12-01T02:26:31.889Z,2.20
2022-12-01T02:29:36.833Z,0.60
2022-12-01T02:32:24.405Z,2.20
2022-12-01T02:35:03.783Z,1.80
2022-12-01T02:37:42.062Z,1.90
2022-12-01T02:40:27.915Z,2.10
2022-12-01T02:42:59.856Z,2.10
2022-12-01T02:45:30.658Z,3.40
2022-12-01T02:48:03.204Z,2.00
2022-12-01T02:50:34.622Z,1.80
2022-12-01T02:53:04.599Z,3.10
2022-12-01T02:55:31.982Z,1.80
2022-12-01T02:57:59.337Z,2.20
2022-12-01T03:00:26.734Z,3.50
2022-12-01T03:03:24.438Z,2.30
2022-12-01T03:06:03.142Z,1.80
2022-12-01T03:08:47.558Z,2.90
2022-12-01T03:11:34.432Z,2.70
2022-12-01T03:14:32.775Z,1.80
2022-12-01T03:17:05.962Z,1.70
2022-12-01T03:19:42.973Z,2.60
2022-12-01T03:22:15.856Z,1.80
2022-12-01T03:24:46.163Z,1.70
2022-12-01T03:27:15.840Z,1.60
2022-12-01T03:29:48.408Z,1.70
2022-12-01T03:32:38.348Z,2.70
2022-12-01T03:35:12.749Z,1.70
2022-12-01T03:37:53.326Z,1.20
2022-12-01T03:40:27.454Z,1.70
2022-12-01T03:43:02.120Z,3.00
2022-12-01T03:45:54.532Z,1.40
2022-12-01T03:48:24.202Z,1.60
2022-12-01T03:51:15.379Z,1.50
2022-12-01T03:54:00.490Z,1.50
2022-12-01T03:56:33.628Z,1.40
2022-12-01T03:59:03.347Z,1.70
2022-12-01T04:01:33.412Z,1.50
2022-12-01T04:04:09.840Z,1.50
2022-12-01T04:06:37.766Z,1.80
2022-12-01T04:09:05.206Z,1.40
2022-12-01T04:11:54.795Z,1.20
2022-12-01T04:14:24.154Z,1.50
2022-12-01T04:16:51.607Z,1.40
2022-12-01T04:19:18.961Z,1.90
2022-12-01T04:21:46.464Z,2.60
2022-12-01T04:24:14.208Z,2.30
2022-12-01T04:26:43.075Z,1.30
2022-12-01T04:29:12.020Z,2.70
2022-12-01T04:31:39.850Z,1.40
2022-12-01T04:34:10.221Z,1.60
2022-12-01T04:36:37.542Z,1.40
2022-12-01T04:39:07.122Z,1.10
2022-12-01T04:41:37.440Z,1.20
2022-12-01T04:44:04.854Z,2.70
2022-12-01T04:46:32.226Z,1.10
2022-12-01T04:48:59.665Z,1.50
2022-12-01T04:51:27.026Z,1.10
2022-12-01T04:53:54.336Z,2.00
2022-12-01T04:56:21.762Z,1.90
2022-12-01T04:58:49.651Z,2.60
2022-12-01T05:01:18.684Z,2.30
2022-12-01T05:03:51.303Z,1.00
2022-12-01T05:06:25.899Z,2.10
2022-12-01T05:08:56.969Z,2.60
2022-12-01T05:11:25.445Z,1.40
2022-12-01T05:13:52.835Z,1.10
2022-12-01T05:16:21.415Z,2.00
2022-12-01T05:19:17.569Z,2.90
2022-12-01T05:21:48.399Z,0.90
2022-12-01T05:24:17.461Z,1.10
2022-12-01T05:26:45.458Z,1.10
2022-12-01T05:29:13.507Z,2.20
2022-12-01T05:31:41.408Z,1.00
2022-12-01T05:34:08.956Z,1.80
2022-12-01T05:36:36.663Z,1.90
2022-12-01T05:39:05.365Z,2.20
2022-12-01T05:41:32.915Z,0.90
2022-12-01T05:44:01.107Z,2.00
2022-12-01T05:46:28.468Z,2.10
2022-12-01T05:48:55.925Z,1.90
2022-12-01T05:51:23.820Z,1.90
2022-12-01T05:53:51.452Z,1.50
2022-12-01T05:56:20.419Z,1.00
2022-12-01T05:58:47.787Z,1.10
2022-12-01T06:01:15.887Z,1.00
2022-12-01T06:03:43.572Z,2.80
2022-12-01T06:06:11.208Z,0.90
2022-12-01T06:08:41.620Z,2.60
2022-12-01T06:11:09.074Z,1.40
2022-12-01T06:13:36.397Z,0.60
2022-12-01T06:16:06.552Z,0.80
2022-12-01T06:18:37.557Z,0.70
2022-12-01T06:21:06.611Z,0.60
2022-12-01T06:23:34.380Z,0.80
2022-12-01T06:26:04.180Z,0.50
2022-12-01T06:28:31.626Z,1.00
2022-12-01T06:31:03.155Z,0.60
2022-12-01T06:33:31.939Z,1.10
2022-12-01T06:36:04.558Z,1.80
2022-12-01T06:38:38.355Z,0.70
2022-12-01T06:41:05.977Z,2.00
2022-12-01T06:43:35.631Z,0.80
2022-12-01T06:46:04.791Z,0.60
2022-12-01T06:48:39.287Z,0.70
2022-12-01T06:51:06.761Z,0.90
2022-12-01T06:53:34.079Z,1.90
2022-12-01T06:56:02.715Z,2.40
2022-12-01T06:58:30.584Z,1.70
2022-12-01T07:00:59.277Z,0.70
2022-12-01T07:03:26.887Z,2.30
2022-12-01T07:05:59.720Z,2.10
2022-12-01T07:11:10.274Z,0.50
2022-12-01T07:13:37.514Z,0.00
2022-12-01T07:16:08.500Z,1.50
2022-12-01T07:18:37.265Z,0.90
2022-12-01T07:21:11.595Z,2.40
2022-12-01T07:23:39.201Z,1.00
2022-12-01T07:26:11.374Z,1.50
2022-12-01T07:28:38.839Z,2.00
2022-12-01T07:31:19.635Z,0.90
2022-12-01T07:33:47.053Z,1.20
2022-12-01T07:36:14.699Z,2.80
2022-12-01T07:38:42.207Z,2.90
2022-12-01T07:41:12.541Z,1.30
2022-12-01T07:43:40.711Z,1.90
2022-12-01T07:46:10.983Z,1.40
2022-12-01T07:48:39.603Z,1.30
2022-12-01T07:51:09.543Z,1.50
2022-12-01T07:53:37.552Z,1.10
2022-12-01T07:56:14.194Z,1.60
2022-12-01T07:58:44.787Z,1.50
2022-12-01T08:01:14.910Z,1.70
2022-12-01T08:03:43.532Z,1.50
2022-12-01T08:06:11.764Z,2.90
2022-12-01T08:08:41.085Z,2.00
2022-12-01T08:11:14.110Z,1.70
2022-12-01T08:13:42.533Z,1.70
2022-12-01T08:16:12.186Z,1.80
2022-12-01T08:18:40.820Z,1.90
2022-12-01T08:21:09.816Z,2.40
2022-12-01T08:23:37.280Z,1.80
2022-12-01T08:26:12.765Z,3.60
2022-12-01T08:28:40.582Z,3.40
2022-12-01T08:31:19.712Z,2.00
2022-12-01T08:33:48.388Z,2.00
2022-12-01T08:36:15.950Z,2.90
2022-12-01T08:38:45.325Z,2.10
2022-12-01T08:41:18.127Z,2.10
2022-12-01T08:44:01.923Z,2.30
2022-12-01T08:46:36.211Z,2.40
2022-12-01T12:38:00.445Z,6.20
2022-12-01T15:29:09.739Z,4.30
2022-12-01T15:31:40.341Z,4.20
2022-12-01T15:34:19.234Z,4.20
2022-12-01T15:36:47.380Z,4.10
2022-12-01T15:39:17.867Z,4.20
2022-12-01T15:41:48.676Z,4.00
2022-12-01T15:44:31.877Z,4.00
2022-12-01T15:46:58.914Z,4.00
2022-12-01T15:49:33.145Z,3.90
2022-12-01T15:52:10.499Z,4.00
2022-12-01T15:54:38.926Z,4.00
2022-12-01T15:57:06.978Z,3.90
2022-12-01T15:59:41.809Z,3.70
2022-12-01T16:02:24.353Z,2.90
2022-12-01T16:05:10.896Z,2.80
2022-12-01T16:08:11.619Z,3.80
2022-12-01T16:10:28.087Z,3.50
2022-12-01T16:13:34.007Z,3.70
2022-12-01T16:16:02.192Z,3.40
2022-12-01T16:18:33.270Z,3.50
2022-12-01T16:21:05.793Z,3.60
2022-12-01T16:23:34.730Z,3.30
2022-12-01T16:26:09.057Z,3.80
2022-12-01T16:28:36.867Z,2.70
2022-12-01T16:31:06.099Z,3.50
2022-12-01T16:33:39.359Z,3.60
2022-12-01T16:36:07.693Z,4.50
2022-12-01T16:38:36.687Z,3.50
2022-12-01T16:41:17.620Z,4.50
2022-12-01T16:44:12.530Z,3.40
2022-12-01T16:46:35.234Z,3.60
2022-12-01T16:49:03.385Z,3.30
2022-12-01T16:51:50.013Z,3.30
2022-12-01T16:54:18.814Z,3.20
2022-12-01T16:56:46.263Z,3.20
2022-12-01T16:59:13.773Z,3.10
2022-12-01T17:01:41.730Z,3.90
2022-12-01T17:04:10.683Z,3.60
2022-12-01T17:06:38.673Z,3.10
2022-12-01T17:09:06.733Z,3.10
2022-12-01T17:11:34.785Z,3.10
2022-12-01T17:14:02.401Z,2.20
2022-12-01T17:16:30.275Z,3.00
2022-12-01T17:18:58.717Z,3.60
2022-12-01T17:21:26.554Z,2.90
2022-12-01T17:23:54.827Z,4.60
2022-12-01T17:26:23.318Z,2.90
2022-12-01T17:28:51.093Z,2.90
2022-12-01T17:31:18.932Z,2.90
2022-12-01T17:33:46.668Z,2.90
2022-12-01T17:36:15.469Z,3.90
2022-12-01T17:38:46.187Z,2.60
2022-12-01T17:41:21.988Z,2.80
2022-12-01T17:43:49.612Z,1.60
2022-12-01T17:46:17.654Z,2.70
2022-12-01T17:48:47.139Z,3.70
2022-12-01T17:51:15.584Z,3.20
2022-12-01T17:53:43.345Z,4.60
2022-12-01T17:56:13.847Z,2.50
2022-12-01T17:58:44.913Z,4.10
2022-12-01T18:01:18.952Z,2.40
2022-12-01T18:03:47.180Z,4.50
2022-12-01T18:06:16.435Z,2.60
2022-12-01T18:08:44.504Z,2.50
2022-12-01T18:11:18.707Z,2.40
2022-12-01T18:13:48.333Z,2.90
2022-12-01T18:16:28.393Z,4.00
2022-12-01T18:18:59.503Z,2.50
2022-12-01T18:21:28.669Z,2.50
2022-12-01T18:24:00.940Z,2.70
2022-12-01T18:26:30.246Z,2.60
2022-12-01T18:29:10.070Z,1.70
2022-12-01T18:31:38.590Z,2.20
2022-12-01T18:34:07.868Z,2.40
2022-12-01T18:36:37.594Z,2.50
2022-12-01T18:39:07.844Z,3.40
2022-12-01T18:41:36.434Z,2.40
2022-12-01T18:44:04.924Z,3.40
2022-12-01T18:46:33.074Z,2.30
2022-12-01T18:49:02.655Z,2.00
2022-12-01T18:51:33.459Z,3.10
2022-12-01T18:54:05.858Z,3.90
2022-12-01T18:56:36.693Z,2.30
2022-12-01T18:59:07.921Z,3.00
2022-12-01T19:01:38.261Z,2.20
2022-12-01T19:04:07.794Z,2.30
2022-12-01T19:06:40.008Z,2.30
2022-12-01T19:09:13.235Z,3.60
2022-12-01T19:11:43.336Z,2.20
2022-12-01T19:14:17.112Z,2.10
2022-12-01T19:16:46.258Z,2.70
2022-12-01T19:19:14.379Z,2.10
2022-12-01T19:21:43.395Z,2.10
2022-12-01T19:24:11.198Z,2.20
2022-12-01T19:26:40.307Z,2.20
2022-12-01T19:29:09.190Z,2.30
2022-12-01T19:31:36.894Z,2.20
2022-12-01T19:34:05.170Z,3.80
2022-12-01T19:36:33.573Z,2.20
2022-12-01T19:39:07.485Z,2.60
2022-12-01T19:41:38.275Z,2.20
2022-12-01T19:44:06.361Z,2.20
2022-12-01T19:46:34.380Z,2.10
2022-12-01T19:49:02.979Z,3.10
2022-12-01T19:51:39.555Z,1.90
2022-12-01T19:54:19.672Z,2.00
2022-12-01T19:56:47.668Z,2.10
2022-12-01T19:59:22.710Z,2.70
2022-12-01T20:01:51.552Z,2.00
2022-12-01T20:04:22.355Z,2.10
2022-12-01T20:06:50.407Z,2.00
2022-12-01T20:09:21.401Z,2.30
2022-12-01T20:11:49.097Z,1.80
2022-12-01T20:14:20.035Z,1.10
2022-12-01T20:16:47.998Z,1.80
2022-12-01T20:19:18.290Z,3.40
2022-12-01T20:21:46.201Z,1.90
2022-12-01T20:24:16.125Z,3.10
2022-12-01T20:26:47.046Z,3.50
2022-12-01T20:29:19.100Z,3.20
2022-12-01T20:31:49.716Z,3.20
2022-12-01T20:34:25.087Z,3.50
2022-12-01T20:36:54.305Z,1.80
2022-12-01T20:39:23.825Z,2.70
2022-12-01T20:41:51.915Z,2.10
2022-12-01T20:44:20.329Z,1.10
2022-12-01T20:46:48.138Z,3.00
2022-12-01T20:49:18.560Z,3.00
2022-12-01T20:51:49.644Z,3.00
2022-12-01T20:54:27.718Z,1.70
2022-12-01T20:56:57.173Z,2.50
2022-12-01T20:59:26.296Z,3.10
2022-12-01T21:01:54.429Z,2.80
2022-12-01T21:04:22.384Z,3.10
2022-12-01T21:06:50.840Z,3.10
2022-12-01T21:09:18.316Z,3.30
2022-12-01T21:12:07.136Z,2.00
2022-12-01T21:14:38.557Z,2.40
2022-12-01T21:17:21.631Z,2.30
2022-12-01T21:20:28.991Z,1.60
2022-12-01T21:23:06.541Z,1.70
2022-12-01T21:25:40.623Z,1.80
2022-12-01T21:28:19.054Z,1.50
2022-12-01T21:30:48.052Z,1.80
2022-12-01T21:33:42.806Z,1.80
2022-12-01T21:36:18.765Z,2.90
2022-12-01T21:38:48.531Z,3.40
2022-12-01T21:41:26.247Z,1.70
2022-12-01T21:44:07.887Z,3.00
2022-12-01T21:46:35.393Z,1.80
2022-12-01T21:49:05.898Z,2.50
2022-12-01T21:51:33.230Z,2.50
2022-12-01T21:54:02.297Z,1.90
2022-12-01T21:56:34.705Z,3.10
2022-12-01T21:59:25.788Z,2.30
2022-12-01T22:01:55.896Z,2.20
2022-12-01T22:04:31.486Z,1.90
2022-12-01T22:06:59.259Z,1.90
2022-12-01T22:09:30.585Z,1.90
2022-12-01T22:12:35.288Z,1.90
2022-12-01T22:15:28.409Z,1.80
2022-12-01T22:17:57.224Z,1.80
2022-12-01T22:20:24.798Z,3.50
2022-12-01T22:22:52.330Z,2.00
2022-12-01T22:25:26.892Z,2.10
2022-12-01T22:27:54.718Z,2.00
2022-12-01T22:30:24.098Z,1.90
2022-12-01T22:33:00.703Z,1.70
2022-12-01T22:35:48.454Z,1.10
2022-12-01T22:38:21.826Z,2.00
2022-12-01T22:40:49.480Z,1.90
2022-12-01T22:43:16.940Z,3.10
2022-12-01T22:45:47.385Z,1.00
2022-12-01T22:48:37.609Z,1.70
2022-12-01T22:51:16.967Z,1.60
2022-12-01T22:53:46.459Z,1.80
2022-12-01T22:56:40.432Z,1.80
2022-12-01T22:59:19.247Z,1.90
2022-12-01T23:01:54.464Z,2.60
2022-12-01T23:04:26.764Z,2.00
2022-12-01T23:07:26.835Z,2.30
2022-12-01T23:09:56.428Z,2.00
2022-12-01T23:12:32.422Z,2.90
2022-12-01T23:15:15.306Z,3.10
2022-12-01T23:17:43.049Z,3.50
2022-12-01T23:20:10.507Z,1.90
2022-12-01T23:22:38.629Z,1.90
2022-12-01T23:25:20.514Z,2.50
2022-12-01T23:27:50.528Z,3.20
2022-12-01T23:30:19.499Z,3.00
2022-12-01T23:32:56.040Z,1.90
2022-12-01T23:35:23.739Z,1.70
2022-12-01T23:37:53.266Z,1.90
2022-12-01T23:40:30.862Z,1.80
2022-12-01T23:43:10.346Z,1.90
2022-12-01T23:45:38.181Z,1.90
2022-12-01T23:48:13.662Z,2.10
2022-12-01T23:50:41.016Z,1.90
2022-12-01T23:53:28.601Z,1.90
2022-12-01T23:55:59.147Z,3.40
2022-12-01T23:58:27.114Z,2.90
